createdAt,value
2022-09-09T00:02:20.983Z,13.65
2022-09-09T00:05:01.270Z,13.62
2022-09-09T00:07:44.397Z,13.66
2022-09-09T00:10:26.245Z,13.50
2022-09-09T00:12:58.313Z,13.31
2022-09-09T00:15:28.098Z,13.16
2022-09-09T00:17:57.318Z,13.33
2022-09-09T00:20:39.746Z,13.42
2022-09-09T00:23:20.762Z,13.44
2022-09-09T00:25:52.513Z,13.49
2022-09-09T00:28:22.071Z,13.42
2022-09-09T00:30:49.653Z,13.44
2022-09-09T00:33:22.294Z,13.44
2022-09-09T00:35:55.740Z,13.37
2022-09-09T00:38:29.620Z,13.29
2022-09-09T00:41:12.395Z,13.31
2022-09-09T00:43:41.534Z,13.33
2022-09-09T00:46:42.897Z,13.18
2022-09-09T00:49:26.554Z,13.12
2022-09-09T00:52:30.778Z,13.12
2022-09-09T00:55:13.846Z,13.19
2022-09-09T00:57:42.550Z,13.16
2022-09-09T01:00:38.914Z,13.19
2022-09-09T01:03:19.038Z,13.19
2022-09-09T01:06:09.097Z,13.03
2022-09-09T01:08:53.999Z,13.16
2022-09-09T01:11:32.999Z,13.14
2022-09-09T01:14:24.867Z,12.99
2022-09-09T01:16:55.850Z,13.07
2022-09-09T01:19:41.494Z,12.92
2022-09-09T01:22:15.815Z,12.95
2022-09-09T01:24:57.401Z,13.02
2022-09-09T01:27:26.117Z,12.90
2022-09-09T01:29:52.697Z,12.93
2022-09-09T01:32:45.652Z,12.80
2022-09-09T01:35:34.152Z,12.80
2022-09-09T01:38:01.105Z,12.76
2022-09-09T01:40:27.765Z,12.84
2022-09-09T01:42:55.588Z,12.91
2022-09-09T01:45:23.252Z,12.96
2022-09-09T01:47:50.499Z,12.92
2022-09-09T01:50:18.542Z,12.82
2022-09-09T01:52:49.731Z,12.72
2022-09-09T01:55:16.947Z,12.65
2022-09-09T01:57:46.573Z,12.72
2022-09-09T02:00:15.231Z,12.62
2022-09-09T02:03:04.982Z,12.54
2022-09-09T02:05:40.691Z,12.59
2022-09-09T02:08:30.022Z,12.55
2022-09-09T02:10:56.623Z,12.55
2022-09-09T02:13:23.489Z,12.56
2022-09-09T02:16:08.029Z,12.49
2022-09-09T02:18:46.099Z,12.50
2022-09-09T02:21:14.810Z,12.47
2022-09-09T02:23:44.206Z,12.54
2022-09-09T02:26:14.296Z,12.37
2022-09-09T02:28:43.358Z,12.38
2022-09-09T02:31:10.407Z,12.37
2022-09-09T02:33:42.738Z,12.47
2022-09-09T02:36:12.036Z,12.49
2022-09-09T02:38:47.286Z,12.40
2022-09-09T02:41:13.967Z,12.43
2022-09-09T02:43:40.594Z,12.44
2022-09-09T02:46:25.013Z,12.37
2022-09-09T02:49:03.734Z,12.46
2022-09-09T02:51:52.122Z,12.46
2022-09-09T02:54:32.213Z,12.50
2022-09-09T02:57:17.549Z,12.45
2022-09-09T02:59:45.727Z,12.40
2022-09-09T03:02:14.333Z,12.48
2022-09-09T03:04:41.633Z,12.40
2022-09-09T03:07:08.414Z,12.34
2022-09-09T03:09:35.044Z,12.32
2022-09-09T03:12:02.065Z,12.34
2022-09-09T03:14:28.655Z,12.34
2022-09-09T03:16:55.549Z,12.46
2022-09-09T03:19:22.317Z,12.38
2022-09-09T03:21:49.141Z,12.30
2022-09-09T03:24:15.975Z,12.40
2022-09-09T03:26:45.779Z,12.41
2022-09-09T03:29:13.509Z,12.48
2022-09-09T03:31:41.259Z,12.50
2022-09-09T03:34:08.206Z,12.51
2022-09-09T03:36:34.913Z,12.59
2022-09-09T03:39:02.014Z,12.50
2022-09-09T03:41:28.656Z,12.52
2022-09-09T03:43:55.520Z,12.59
2022-09-09T03:46:25.560Z,12.53
2022-09-09T03:48:53.493Z,12.55
2022-09-09T03:51:20.522Z,12.60
2022-09-09T03:53:47.583Z,12.77
2022-09-09T03:56:14.511Z,12.72
2022-09-09T03:58:41.975Z,12.74
2022-09-09T04:01:18.879Z,12.83
2022-09-09T04:03:46.239Z,12.78
2022-09-09T04:06:15.600Z,12.82
2022-09-09T04:08:43.315Z,12.73
2022-09-09T04:11:10.743Z,12.78
2022-09-09T04:13:40.238Z,12.82
2022-09-09T04:16:07.733Z,12.97
2022-09-09T04:18:35.499Z,12.86
2022-09-09T04:21:02.465Z,12.98
2022-09-09T04:23:30.456Z,12.98
2022-09-09T04:25:59.192Z,13.05
2022-09-09T04:28:28.288Z,13.08
2022-09-09T04:30:55.023Z,13.09
2022-09-09T04:33:22.063Z,13.10
2022-09-09T04:35:50.806Z,13.21
2022-09-09T04:38:18.521Z,13.09
2022-09-09T04:40:48.852Z,13.20
2022-09-09T04:43:16.177Z,13.07
2022-09-09T04:45:43.702Z,13.09
2022-09-09T04:48:13.590Z,13.18
2022-09-09T04:50:41.622Z,13.19
2022-09-09T04:53:08.615Z,13.23
2022-09-09T04:55:36.083Z,13.23
2022-09-09T04:58:06.771Z,13.31
2022-09-09T05:00:34.891Z,13.36
2022-09-09T05:03:07.149Z,13.41
2022-09-09T05:05:37.299Z,13.48
2022-09-09T05:08:05.658Z,13.52
2022-09-09T05:10:33.310Z,13.56
2022-09-09T05:13:00.061Z,13.54
2022-09-09T05:15:26.813Z,13.69
2022-09-09T05:17:55.883Z,13.72
2022-09-09T05:20:22.497Z,13.77
2022-09-09T05:22:49.025Z,13.95
2022-09-09T05:25:15.794Z,13.97
2022-09-09T05:27:42.451Z,14.02
2022-09-09T05:30:09.797Z,13.96
2022-09-09T05:32:37.499Z,13.95
2022-09-09T05:35:05.380Z,14.14
2022-09-09T05:37:32.419Z,14.21
2022-09-09T05:39:59.158Z,14.11
2022-09-09T05:42:25.892Z,14.22
2022-09-09T05:44:55.369Z,14.13
2022-09-09T05:47:21.990Z,14.22
2022-09-09T05:49:48.575Z,14.30
2022-09-09T05:52:15.147Z,14.48
2022-09-09T05:54:42.638Z,14.53
2022-09-09T05:57:09.647Z,14.60
2022-09-09T05:59:36.183Z,14.74
2022-09-09T06:02:03.010Z,14.91
2022-09-09T06:04:29.600Z,14.99
2022-09-09T06:06:56.188Z,15.04
2022-09-09T06:09:22.784Z,15.26
2022-09-09T06:11:49.561Z,15.41
2022-09-09T06:14:16.206Z,15.25
2022-09-09T06:16:45.149Z,15.69
2022-09-09T06:19:13.870Z,16.44
2022-09-09T06:21:41.229Z,16.53
2022-09-09T06:24:11.306Z,16.99
2022-09-09T06:26:41.618Z,16.95
2022-09-09T06:29:08.541Z,17.23
2022-09-09T06:31:37.790Z,16.77
2022-09-09T06:34:08.858Z,16.34
2022-09-09T06:36:38.591Z,16.39
2022-09-09T06:39:08.781Z,17.20
2022-09-09T06:41:39.301Z,17.50
2022-09-09T06:44:05.876Z,16.97
2022-09-09T06:46:34.279Z,16.81
2022-09-09T06:49:01.661Z,16.56
2022-09-09T06:51:34.489Z,16.46
2022-09-09T06:54:03.361Z,16.48
2022-09-09T06:56:35.904Z,16.42
2022-09-09T06:59:06.854Z,16.36
2022-09-09T07:01:39.239Z,16.32
2022-09-09T07:04:08.931Z,16.44
2022-09-09T07:06:37.837Z,16.97
2022-09-09T07:09:09.842Z,16.83
2022-09-09T07:11:44.882Z,16.82
2022-09-09T07:14:14.987Z,16.86
2022-09-09T07:16:42.903Z,16.89
2022-09-09T07:19:10.079Z,17.04
2022-09-09T07:21:37.074Z,17.07
2022-09-09T07:24:03.815Z,17.48
2022-09-09T07:26:32.170Z,17.59
2022-09-09T07:28:59.114Z,17.75
2022-09-09T07:31:31.848Z,17.75
2022-09-09T07:34:00.827Z,17.57
2022-09-09T07:36:33.087Z,17.43
2022-09-09T07:39:03.298Z,17.25
2022-09-09T07:41:35.254Z,17.08
2022-09-09T07:44:09.479Z,16.97
2022-09-09T07:46:36.930Z,16.92
2022-09-09T07:49:04.691Z,17.16
2022-09-09T07:51:34.093Z,17.43
2022-09-09T07:54:06.074Z,17.38
2022-09-09T07:56:33.651Z,17.21
2022-09-09T07:59:00.352Z,17.10
2022-09-09T08:01:28.797Z,17.04
2022-09-09T08:04:04.316Z,17.08
2022-09-09T08:06:36.711Z,17.07
2022-09-09T08:09:04.365Z,16.92
2022-09-09T08:11:36.668Z,17.19
2022-09-09T08:14:05.768Z,17.92
2022-09-09T08:16:37.452Z,18.05
2022-09-09T08:19:05.028Z,17.93
2022-09-09T08:21:34.230Z,17.85
2022-09-09T08:24:02.231Z,17.91
2022-09-09T08:26:31.572Z,18.10
2022-09-09T08:29:00.661Z,18.25
2022-09-09T08:31:38.447Z,19.06
2022-09-09T08:34:06.847Z,18.72
2022-09-09T08:36:36.959Z,18.65
2022-09-09T08:39:05.523Z,19.93
2022-09-09T08:41:32.020Z,19.99
2022-09-09T08:44:10.781Z,19.89
2022-09-09T08:46:48.855Z,19.22
2022-09-09T08:49:24.594Z,19.27
2022-09-09T08:51:51.918Z,19.53
2022-09-09T08:54:41.483Z,19.81
2022-09-09T08:57:15.714Z,20.69
2022-09-09T08:59:42.361Z,21.25
2022-09-09T09:02:37.547Z,20.41
2022-09-09T09:05:24.786Z,21.20
2022-09-09T09:08:07.497Z,21.12
2022-09-09T09:10:49.166Z,21.37
2022-09-09T09:13:17.744Z,21.32
2022-09-09T09:15:48.330Z,21.41
2022-09-09T09:18:17.011Z,21.17
2022-09-09T09:20:55.176Z,20.50
2022-09-09T09:23:28.786Z,20.98
2022-09-09T09:26:00.834Z,20.78
2022-09-09T09:28:33.886Z,20.48
2022-09-09T09:31:13.723Z,20.25
2022-09-09T09:33:54.151Z,20.49
2022-09-09T09:36:24.675Z,20.61
2022-09-09T09:41:43.879Z,20.42
2022-09-09T09:44:30.285Z,20.34
2022-09-09T09:47:17.636Z,20.50
2022-09-09T09:49:59.658Z,21.20
2022-09-09T09:52:29.549Z,21.77
2022-09-09T09:54:58.594Z,22.09
2022-09-09T09:57:31.338Z,22.53
2022-09-09T10:00:19.022Z,23.02
2022-09-09T10:02:47.497Z,22.79
2022-09-09T10:05:26.767Z,23.30
2022-09-09T10:08:10.258Z,23.40
2022-09-09T10:11:07.004Z,23.48
2022-09-09T10:13:42.305Z,23.91
2022-09-09T10:16:28.502Z,24.16
2022-09-09T10:19:01.084Z,24.36
2022-09-09T10:21:33.620Z,24.05
2022-09-09T10:24:12.374Z,24.52
2022-09-09T10:27:04.093Z,24.57
2022-09-09T10:29:54.253Z,24.20
2022-09-09T10:33:04.776Z,24.31
2022-09-09T10:35:38.283Z,23.49
2022-09-09T10:38:18.832Z,24.13
2022-09-09T10:41:20.963Z,24.20
2022-09-09T10:44:12.262Z,23.69
2022-09-09T10:46:56.891Z,23.72
2022-09-09T10:49:43.070Z,23.11
2022-09-09T10:52:20.754Z,23.10
2022-09-09T10:55:01.454Z,22.73
2022-09-09T10:57:50.810Z,22.86
2022-09-09T11:00:24.719Z,22.23
2022-09-09T11:02:57.336Z,22.63
2022-09-09T11:05:26.652Z,22.73
2022-09-09T11:08:02.101Z,22.57
2022-09-09T11:10:44.692Z,22.22
2022-09-09T11:13:35.358Z,22.32
2022-09-09T11:16:31.103Z,22.60
2022-09-09T11:19:14.106Z,22.77
2022-09-09T11:21:47.367Z,22.24
2022-09-09T11:24:27.668Z,22.34
2022-09-09T11:27:27.039Z,22.67
2022-09-09T11:30:27.203Z,23.18
2022-09-09T11:33:16.842Z,23.17
2022-09-09T11:36:04.481Z,22.77
2022-09-09T11:38:37.052Z,23.12
2022-09-09T11:41:11.314Z,22.71
2022-09-09T11:43:46.439Z,22.83
2022-09-09T11:46:16.421Z,22.75
2022-09-09T11:48:46.743Z,22.75
2022-09-09T11:51:27.627Z,22.70
2022-09-09T11:53:57.014Z,22.73
2022-09-09T11:56:31.821Z,22.53
2022-09-09T11:59:21.290Z,22.89
2022-09-09T12:01:57.421Z,22.93
2022-09-09T12:04:40.805Z,22.93
2022-09-09T12:07:10.610Z,23.04
2022-09-09T12:10:11.809Z,23.11
2022-09-09T12:12:43.879Z,23.02
2022-09-09T12:15:12.975Z,22.58
2022-09-09T12:17:44.986Z,22.59
2022-09-09T12:20:14.465Z,22.53
2022-09-09T12:22:53.403Z,22.42
2022-09-09T12:25:47.769Z,22.59
2022-09-09T12:28:27.066Z,22.51
2022-09-09T12:31:11.311Z,22.36
2022-09-09T12:33:44.185Z,22.31
2022-09-09T12:36:16.253Z,22.32
2022-09-09T12:38:45.295Z,22.67
2022-09-09T12:41:24.137Z,22.72
2022-09-09T12:43:51.921Z,22.89
2022-09-09T12:46:34.999Z,22.83
2022-09-09T12:49:01.608Z,22.75
2022-09-09T12:51:35.062Z,22.75
2022-09-09T12:54:01.965Z,22.68
2022-09-09T12:56:33.304Z,22.45
2022-09-09T12:58:59.759Z,22.58
2022-09-09T13:01:32.223Z,23.00
2022-09-09T13:03:59.297Z,23.02
2022-09-09T13:06:29.372Z,23.44
2022-09-09T13:08:58.338Z,23.41
2022-09-09T13:11:31.852Z,23.06
2022-09-09T13:13:59.971Z,22.95
2022-09-09T13:16:36.715Z,22.79
2022-09-09T13:19:15.892Z,22.84
2022-09-09T13:21:43.608Z,22.54
2022-09-09T13:24:33.233Z,21.63
2022-09-09T13:27:06.206Z,21.37
2022-09-09T13:29:33.595Z,21.14
2022-09-09T13:32:13.951Z,20.76
2022-09-09T13:34:53.238Z,20.42
2022-09-09T13:37:42.149Z,20.65
2022-09-09T13:40:20.414Z,20.70
2022-09-09T13:42:47.096Z,20.53
2022-09-09T13:45:22.396Z,20.21
2022-09-09T13:47:53.252Z,19.91
2022-09-09T13:50:26.701Z,19.78
2022-09-09T13:52:55.281Z,19.76
2022-09-09T13:55:24.373Z,19.56
2022-09-09T13:58:02.271Z,19.21
2022-09-09T14:00:34.566Z,18.99
2022-09-09T14:03:03.215Z,18.48
2022-09-09T14:05:32.885Z,18.18
2022-09-09T14:08:01.505Z,18.20
2022-09-09T14:10:28.265Z,18.15
2022-09-09T14:12:54.992Z,17.84
2022-09-09T14:15:22.905Z,17.91
2022-09-09T14:17:49.663Z,17.78
2022-09-09T14:20:18.598Z,17.34
2022-09-09T14:22:45.278Z,16.91
2022-09-09T14:25:14.502Z,17.28
2022-09-09T14:27:41.430Z,17.52
2022-09-09T14:30:08.700Z,17.40
2022-09-09T14:32:35.663Z,17.66
2022-09-09T14:35:02.427Z,17.54
2022-09-09T14:37:29.237Z,17.60
2022-09-09T14:39:56.371Z,17.68
2022-09-09T14:42:23.198Z,17.24
2022-09-09T14:44:49.988Z,17.13
2022-09-09T14:47:16.568Z,17.27
2022-09-09T14:49:46.487Z,17.21
2022-09-09T14:52:14.112Z,17.07
2022-09-09T14:54:41.235Z,16.95
2022-09-09T14:57:07.956Z,16.85
2022-09-09T14:59:35.498Z,16.63
2022-09-09T15:02:05.301Z,17.36
2022-09-09T15:04:32.173Z,16.66
2022-09-09T15:06:59.773Z,16.70
2022-09-09T15:09:26.477Z,16.44
2022-09-09T15:11:53.097Z,16.17
2022-09-09T15:14:22.659Z,15.92
2022-09-09T15:16:51.936Z,15.97
2022-09-09T15:19:18.502Z,15.99
2022-09-09T15:21:45.406Z,16.04
2022-09-09T15:24:12.061Z,16.16
2022-09-09T15:26:41.686Z,16.21
2022-09-09T15:29:09.370Z,16.42
2022-09-09T15:31:36.754Z,15.86
2022-09-09T15:34:06.699Z,16.21
2022-09-09T15:36:36.388Z,16.83
2022-09-09T15:39:05.210Z,17.00
2022-09-09T15:41:35.061Z,17.09
2022-09-09T15:44:02.037Z,17.47
2022-09-09T15:46:42.946Z,17.21
2022-09-09T15:49:14.039Z,17.11
2022-09-09T15:51:44.457Z,17.30
2022-09-09T15:54:21.771Z,16.88
2022-09-09T15:56:56.626Z,16.93
2022-09-09T15:59:25.918Z,16.98
2022-09-09T16:01:53.299Z,16.99
2022-09-09T16:04:26.801Z,17.09
2022-09-09T16:06:55.845Z,16.63
2022-09-09T16:09:22.438Z,16.93
2022-09-09T16:11:49.148Z,17.01
2022-09-09T16:14:19.328Z,16.99
2022-09-09T16:16:45.959Z,16.87
2022-09-09T16:19:13.961Z,17.14
2022-09-09T16:21:46.485Z,17.03
2022-09-09T16:24:15.844Z,16.74
2022-09-09T16:26:48.138Z,16.62
2022-09-09T16:29:16.298Z,16.61
2022-09-09T16:31:43.086Z,16.66
2022-09-09T16:34:10.552Z,16.46
2022-09-09T16:36:40.147Z,16.54
2022-09-09T16:39:15.806Z,16.63
2022-09-09T16:41:45.857Z,16.90
2022-09-09T16:44:16.792Z,16.80
2022-09-09T16:46:45.332Z,16.85
2022-09-09T16:49:14.282Z,16.70
2022-09-09T16:51:48.869Z,16.43
2022-09-09T16:54:18.304Z,16.35
2022-09-09T16:56:47.354Z,16.36
2022-09-09T16:59:20.123Z,16.29
2022-09-09T17:01:49.262Z,16.36
2022-09-09T17:04:21.779Z,16.33
2022-09-09T17:06:53.042Z,16.24
2022-09-09T17:09:21.067Z,16.35
2022-09-09T17:11:55.828Z,16.31
2022-09-09T17:14:23.482Z,16.50
2022-09-09T17:16:50.305Z,16.30
2022-09-09T17:19:17.020Z,16.21
2022-09-09T17:22:12.559Z,16.11
2022-09-09T17:24:31.213Z,16.19
2022-09-09T17:26:58.782Z,16.18
2022-09-09T17:29:26.958Z,16.14
2022-09-09T17:31:55.955Z,16.14
2022-09-09T17:34:22.668Z,15.86
2022-09-09T17:36:49.206Z,15.67
2022-09-09T17:39:15.733Z,15.74
2022-09-09T17:41:42.333Z,15.77
2022-09-09T17:44:10.685Z,15.82
2022-09-09T17:46:41.654Z,15.74
2022-09-09T17:49:11.574Z,15.72
2022-09-09T17:51:38.211Z,15.47
2022-09-09T17:54:10.738Z,15.55
2022-09-09T17:56:39.402Z,15.26
2022-09-09T17:59:08.981Z,15.34
2022-09-09T18:01:39.619Z,15.43
2022-09-09T18:04:08.927Z,15.47
2022-09-09T18:06:38.807Z,15.40
2022-09-09T18:09:08.281Z,15.37
2022-09-09T18:11:39.906Z,15.38
2022-09-09T18:14:10.846Z,15.12
2022-09-09T18:16:37.999Z,15.11
2022-09-09T18:19:13.985Z,15.11
2022-09-09T18:21:43.895Z,14.94
2022-09-09T18:24:14.299Z,15.19
2022-09-09T18:26:42.018Z,15.26
2022-09-09T18:29:14.114Z,15.30
2022-09-09T18:31:42.563Z,15.12
2022-09-09T18:34:11.971Z,15.05
2022-09-09T18:36:42.476Z,14.95
2022-09-09T18:39:10.383Z,14.94
2022-09-09T18:41:39.486Z,14.99
2022-09-09T18:44:09.918Z,15.01
2022-09-09T18:46:37.805Z,14.89
2022-09-09T18:49:05.750Z,14.84
2022-09-09T18:51:35.347Z,14.88
2022-09-09T18:54:09.382Z,14.89
2022-09-09T18:56:36.679Z,14.63
2022-09-09T18:59:06.387Z,14.76
2022-09-09T19:01:35.706Z,14.63
2022-09-09T19:04:04.698Z,14.75
2022-09-09T19:06:33.010Z,14.68
2022-09-09T19:09:03.530Z,14.56
2022-09-09T19:11:32.167Z,14.69
2022-09-09T19:14:01.710Z,14.59
2022-09-09T19:16:30.903Z,14.64
2022-09-09T19:19:04.378Z,14.48
2022-09-09T19:21:33.842Z,14.29
2022-09-09T19:24:15.047Z,14.47
2022-09-09T19:26:48.467Z,14.59
2022-09-09T19:29:22.180Z,14.59
2022-09-09T19:32:18.631Z,14.61
2022-09-09T19:34:36.961Z,14.64
2022-09-09T19:37:03.579Z,14.55
2022-09-09T19:39:30.118Z,14.41
2022-09-09T19:41:56.642Z,14.46
2022-09-09T19:44:23.212Z,14.39
2022-09-09T19:46:50.092Z,14.47
2022-09-09T19:49:17.348Z,14.34
2022-09-09T19:51:43.988Z,14.36
2022-09-09T19:54:14.135Z,14.48
2022-09-09T19:56:42.101Z,14.44
2022-09-09T19:59:11.170Z,14.52
2022-09-09T20:01:44.538Z,14.43
2022-09-09T20:04:12.036Z,14.17
2022-09-09T20:06:41.524Z,14.31
2022-09-09T20:09:14.585Z,14.34
2022-09-09T20:11:41.665Z,14.18
2022-09-09T20:14:08.337Z,14.18
2022-09-09T20:16:35.366Z,14.28
2022-09-09T20:19:04.655Z,14.27
2022-09-09T20:21:38.238Z,14.31
2022-09-09T20:24:07.527Z,14.53
2022-09-09T20:26:37.562Z,14.61
2022-09-09T20:29:07.754Z,14.47
2022-09-09T20:31:37.058Z,14.45
2022-09-09T20:34:06.236Z,14.37
2022-09-09T20:36:35.573Z,14.50
2022-09-09T20:39:10.645Z,14.40
2022-09-09T20:41:38.911Z,14.31
2022-09-09T20:44:08.460Z,14.41
2022-09-09T20:46:37.802Z,14.27
2022-09-09T20:49:08.066Z,14.35
2022-09-09T20:51:36.079Z,14.21
2022-09-09T20:54:17.579Z,14.25
2022-09-09T20:56:45.286Z,14.54
2022-09-09T20:59:14.985Z,14.41
2022-09-09T21:01:42.370Z,14.15
2022-09-09T21:04:09.848Z,14.14
2022-09-09T21:06:37.179Z,14.17
2022-09-09T21:09:04.479Z,14.17
2022-09-09T21:11:31.166Z,14.23
2022-09-09T21:13:59.628Z,14.36
2022-09-09T21:16:26.509Z,14.44
2022-09-09T21:18:53.130Z,14.40
2022-09-09T21:21:21.093Z,14.49
2022-09-09T21:23:54.838Z,14.42
2022-09-09T21:26:22.374Z,14.37
2022-09-09T21:28:49.039Z,14.34
2022-09-09T21:31:17.719Z,14.39
2022-09-09T21:33:44.507Z,14.40
2022-09-09T21:36:12.629Z,14.32
2022-09-09T21:38:40.416Z,14.41
2022-09-09T21:41:12.997Z,14.15
2022-09-09T21:43:42.015Z,14.25
2022-09-09T21:46:18.157Z,14.35
2022-09-09T21:48:44.913Z,14.36
2022-09-09T21:51:14.940Z,14.16
2022-09-09T21:53:42.043Z,14.21
2022-09-09T21:56:12.253Z,14.18
2022-09-09T21:58:39.585Z,14.24
2022-09-09T22:01:14.958Z,14.10
2022-09-09T22:03:42.713Z,14.11
2022-09-09T22:06:12.357Z,13.94
2022-09-09T22:08:39.185Z,13.80
2022-09-09T22:11:08.334Z,14.06
2022-09-09T22:13:36.679Z,14.20
2022-09-09T22:16:05.775Z,14.30
2022-09-09T22:18:32.795Z,14.15
2022-09-09T22:21:00.161Z,14.15
2022-09-09T22:23:26.817Z,13.95
2022-09-09T22:25:56.481Z,13.95
2022-09-09T22:28:23.402Z,13.87
2022-09-09T22:30:50.075Z,13.88
2022-09-09T22:33:16.701Z,13.88
2022-09-09T22:35:43.379Z,13.95
2022-09-09T22:38:11.395Z,13.95
2022-09-09T22:40:39.584Z,13.97
2022-09-09T22:43:13.365Z,14.00
2022-09-09T22:45:39.981Z,13.87
2022-09-09T22:48:06.542Z,13.74
2022-09-09T22:50:41.920Z,13.64
2022-09-09T22:53:13.661Z,13.82
2022-09-09T22:55:40.613Z,13.38
2022-09-09T22:58:07.417Z,13.39
2022-09-09T23:00:34.058Z,13.35
2022-09-09T23:03:00.818Z,13.21
2022-09-09T23:05:27.739Z,13.26
2022-09-09T23:07:58.585Z,13.25
2022-09-09T23:10:27.282Z,13.25
2022-09-09T23:12:54.222Z,13.28
2022-09-09T23:15:20.968Z,13.31
2022-09-09T23:17:47.541Z,13.22
2022-09-09T23:20:14.155Z,13.29
2022-09-09T23:22:40.703Z,13.35
2022-09-09T23:25:07.648Z,13.43
2022-09-09T23:27:34.628Z,13.44
2022-09-09T23:30:01.644Z,13.38
2022-09-09T23:32:29.277Z,13.22
2022-09-09T23:34:56.266Z,13.23
2022-09-09T23:37:22.840Z,13.16
2022-09-09T23:39:49.446Z,13.19
2022-09-09T23:42:16.102Z,13.06
2022-09-09T23:44:42.883Z,12.96
2022-09-09T23:47:09.814Z,12.85
2022-09-09T23:49:39.542Z,13.03
2022-09-09T23:52:06.751Z,12.93
2022-09-09T23:54:34.935Z,12.99
2022-09-09T23:57:03.173Z,12.89
2022-09-09T23:59:34.979Z,12.91
